createdAt,value
2022-10-05T00:00:23.165Z,178.45
2022-10-05T00:02:52.632Z,176.60
2022-10-05T00:05:29.256Z,172.98
2022-10-05T00:07:59.298Z,170.70
2022-10-05T00:10:27.695Z,164.38
2022-10-05T00:12:55.804Z,164.68
2022-10-05T00:15:24.589Z,164.68
2022-10-05T00:17:52.948Z,173.38
2022-10-05T00:20:24.094Z,172.70
2022-10-05T00:22:58.699Z,159.55
2022-10-05T00:25:26.705Z,167.50
2022-10-05T00:27:59.408Z,164.68
2022-10-05T00:30:29.155Z,164.60
2022-10-05T00:32:59.639Z,164.82
2022-10-05T00:35:29.383Z,158.50
2022-10-05T00:37:58.739Z,162.95
2022-10-05T00:40:36.810Z,154.68
2022-10-05T00:43:19.539Z,154.02
2022-10-05T00:45:50.152Z,151.38
2022-10-05T00:48:24.513Z,149.07
2022-10-05T00:51:25.539Z,151.80
2022-10-05T00:54:18.950Z,157.80
2022-10-05T00:57:00.253Z,149.20
2022-10-05T00:59:46.232Z,154.55
2022-10-05T01:02:17.228Z,159.68
2022-10-05T01:04:50.239Z,155.70
2022-10-05T01:07:26.087Z,154.25
2022-10-05T01:10:00.556Z,153.60
2022-10-05T01:12:34.553Z,156.70
2022-10-05T01:15:06.990Z,152.82
2022-10-05T01:17:39.202Z,162.95
2022-10-05T01:20:24.912Z,155.85
2022-10-05T01:23:24.073Z,149.32
2022-10-05T01:26:02.685Z,153.30
2022-10-05T01:28:33.992Z,158.65
2022-10-05T01:31:06.364Z,152.30
2022-10-05T01:33:37.239Z,147.93
2022-10-05T01:36:11.336Z,152.40
2022-10-05T01:38:45.164Z,151.43
2022-10-05T01:41:20.337Z,153.55
2022-10-05T01:43:52.057Z,158.30
2022-10-05T01:46:25.988Z,140.07
2022-10-05T01:49:07.399Z,127.78
2022-10-05T01:51:40.143Z,132.65
2022-10-05T01:54:15.734Z,131.23
2022-10-05T01:56:48.396Z,129.23
2022-10-05T01:59:27.867Z,143.18
2022-10-05T02:01:59.584Z,159.13
2022-10-05T02:05:00.356Z,159.73
2022-10-05T02:07:23.642Z,167.13
2022-10-05T02:09:55.774Z,171.95
2022-10-05T02:12:25.344Z,168.75
2022-10-05T02:14:59.605Z,166.55
2022-10-05T02:17:32.653Z,173.98
2022-10-05T02:20:03.299Z,171.77
2022-10-05T02:22:34.990Z,178.73
2022-10-05T02:25:05.919Z,171.40
2022-10-05T02:27:35.950Z,176.52
2022-10-05T02:30:11.694Z,172.13
2022-10-05T02:32:48.593Z,164.68
2022-10-05T02:35:20.161Z,173.32
2022-10-05T02:37:57.431Z,170.63
2022-10-05T02:40:34.467Z,167.38
2022-10-05T02:43:07.614Z,173.77
2022-10-05T02:45:42.858Z,171.07
2022-10-05T02:48:14.648Z,169.82
2022-10-05T02:50:48.521Z,172.57
2022-10-05T02:53:24.030Z,174.48
2022-10-05T02:56:00.161Z,170.00
2022-10-05T02:58:30.269Z,173.02
2022-10-05T03:01:04.305Z,172.48
2022-10-05T03:03:36.451Z,172.95
2022-10-05T03:06:06.725Z,179.32
2022-10-05T03:08:37.025Z,172.85
2022-10-05T03:11:09.563Z,176.23
2022-10-05T03:13:46.201Z,166.68
2022-10-05T03:16:25.505Z,169.73
2022-10-05T03:19:03.941Z,170.98
2022-10-05T03:21:46.461Z,167.27
2022-10-05T03:24:27.636Z,175.90
2022-10-05T03:26:59.285Z,189.05
2022-10-05T03:29:32.217Z,165.90
2022-10-05T03:32:07.142Z,173.48
2022-10-05T03:34:39.521Z,171.70
2022-10-05T03:37:11.864Z,168.63
2022-10-05T03:39:42.264Z,166.65
2022-10-05T03:42:17.169Z,169.90
2022-10-05T03:44:51.392Z,171.52
2022-10-05T03:47:30.270Z,173.68
2022-10-05T03:50:15.121Z,160.65
2022-10-05T03:52:47.534Z,160.75
2022-10-05T03:55:21.005Z,159.73
2022-10-05T03:57:51.321Z,168.52
2022-10-05T04:00:23.182Z,159.82
2022-10-05T04:02:56.227Z,167.85
2022-10-05T04:05:26.553Z,168.05
2022-10-05T04:07:58.002Z,171.95
2022-10-05T04:10:28.648Z,170.30
2022-10-05T04:13:00.364Z,163.00
2022-10-05T04:15:33.577Z,165.75
2022-10-05T04:18:07.593Z,173.75
2022-10-05T04:20:42.078Z,174.38
2022-10-05T04:23:18.853Z,162.35
2022-10-05T04:25:50.401Z,159.30
2022-10-05T04:28:21.671Z,162.63
2022-10-05T04:30:50.806Z,164.80
2022-10-05T04:33:20.100Z,172.80
2022-10-05T04:35:59.317Z,168.90
2022-10-05T04:38:36.142Z,173.85
2022-10-05T04:41:17.558Z,170.20
2022-10-05T04:43:54.557Z,169.25
2022-10-05T04:46:34.747Z,173.07
2022-10-05T04:49:23.299Z,171.25
2022-10-05T04:51:55.776Z,169.02
2022-10-05T04:54:30.828Z,168.80
2022-10-05T04:57:01.693Z,166.35
2022-10-05T05:00:05.725Z,176.70
2022-10-05T05:02:44.664Z,176.07
2022-10-05T05:05:29.304Z,169.60
2022-10-05T05:08:04.806Z,168.05
2022-10-05T05:10:55.265Z,171.52
2022-10-05T05:13:45.465Z,171.93
2022-10-05T05:16:18.985Z,168.45
2022-10-05T05:19:01.181Z,166.07
2022-10-05T05:21:38.006Z,172.75
2022-10-05T05:24:11.380Z,170.27
2022-10-05T05:26:53.529Z,174.68
2022-10-05T05:29:28.440Z,172.00
2022-10-05T05:32:02.848Z,168.25
2022-10-05T05:34:41.991Z,177.68
2022-10-05T05:37:14.858Z,169.98
2022-10-05T05:39:50.144Z,180.27
2022-10-05T05:42:28.008Z,170.23
2022-10-05T05:44:58.181Z,169.40
2022-10-05T05:47:35.312Z,170.57
2022-10-05T05:50:19.839Z,169.30
2022-10-05T05:52:54.477Z,172.80
2022-10-05T05:55:29.894Z,169.65
2022-10-05T05:58:03.548Z,172.07
2022-10-05T06:00:35.654Z,173.93
2022-10-05T06:03:08.023Z,166.93
2022-10-05T06:05:40.848Z,166.52
2022-10-05T06:08:15.060Z,156.32
2022-10-05T06:10:46.519Z,149.77
2022-10-05T06:13:18.280Z,160.13
2022-10-05T06:15:48.566Z,153.18
2022-10-05T06:18:19.495Z,157.95
2022-10-05T06:20:52.249Z,158.48
2022-10-05T06:23:26.676Z,168.52
2022-10-05T06:26:12.846Z,162.93
2022-10-05T06:28:40.773Z,164.80
2022-10-05T06:31:19.747Z,165.65
2022-10-05T06:33:51.417Z,162.65
2022-10-05T06:36:29.246Z,166.63
2022-10-05T06:39:38.436Z,176.25
2022-10-05T06:42:18.036Z,171.75
2022-10-05T06:44:53.414Z,173.70
2022-10-05T06:47:30.487Z,177.50
2022-10-05T06:50:06.936Z,176.63
2022-10-05T06:52:42.455Z,171.63
2022-10-05T06:55:17.659Z,176.80
2022-10-05T06:58:01.363Z,168.43
2022-10-05T07:00:33.319Z,167.07
2022-10-05T07:03:06.464Z,162.93
2022-10-05T07:05:54.024Z,163.15
2022-10-05T07:08:29.227Z,167.77
2022-10-05T07:11:06.688Z,164.32
2022-10-05T07:13:52.006Z,151.10
2022-10-05T07:16:26.406Z,165.38
2022-10-05T07:19:04.407Z,173.77
2022-10-05T07:21:39.498Z,163.77
2022-10-05T07:24:22.728Z,166.38
2022-10-05T07:26:58.118Z,167.32
2022-10-05T07:29:30.762Z,167.25
2022-10-05T07:32:04.842Z,169.35
2022-10-05T07:34:44.056Z,169.35
2022-10-05T07:37:31.755Z,177.73
2022-10-05T07:40:05.953Z,171.23
2022-10-05T07:42:51.987Z,169.75
2022-10-05T07:45:27.936Z,164.70
2022-10-05T07:47:57.293Z,168.50
2022-10-05T07:50:28.884Z,170.18
2022-10-05T07:52:58.884Z,174.75
2022-10-05T07:55:28.036Z,180.95
2022-10-05T07:58:04.819Z,177.73
2022-10-05T08:00:47.924Z,182.20
2022-10-05T08:03:22.133Z,177.93
2022-10-05T08:05:50.167Z,182.70
2022-10-05T08:08:23.013Z,180.23
2022-10-05T08:10:55.176Z,176.88
2022-10-05T08:13:29.653Z,188.00
2022-10-05T08:16:00.773Z,185.75
2022-10-05T08:18:40.920Z,191.15
2022-10-05T08:21:12.158Z,184.85
2022-10-05T08:23:44.683Z,190.98
2022-10-05T08:26:18.836Z,191.45
2022-10-05T08:28:53.128Z,198.73
2022-10-05T08:31:24.392Z,201.68
2022-10-05T08:33:58.715Z,186.95
2022-10-05T08:36:44.856Z,196.43
2022-10-05T08:39:17.179Z,195.35
2022-10-05T08:42:24.880Z,201.73
2022-10-05T08:45:37.399Z,202.70
2022-10-05T08:48:31.490Z,201.18
2022-10-05T08:51:21.605Z,197.93
2022-10-05T08:54:20.697Z,203.25
2022-10-05T08:56:52.637Z,212.32
2022-10-05T09:00:10.454Z,202.18
2022-10-05T09:03:01.153Z,196.85
2022-10-05T09:05:58.435Z,210.73
2022-10-05T09:08:52.611Z,211.68
2022-10-05T09:11:26.393Z,209.60
2022-10-05T09:14:26.715Z,214.63
2022-10-05T09:17:19.097Z,211.75
2022-10-05T09:20:01.690Z,207.10
2022-10-05T09:22:55.280Z,213.45
2022-10-05T09:25:24.541Z,218.02
2022-10-05T09:27:57.892Z,214.98
2022-10-05T09:30:49.578Z,214.05
2022-10-05T09:33:45.527Z,217.88
2022-10-05T09:36:52.801Z,222.05
2022-10-05T09:39:36.538Z,217.30
2022-10-05T09:42:31.531Z,217.38
2022-10-05T09:45:39.344Z,217.60
2022-10-05T09:48:51.534Z,222.80
2022-10-05T09:51:49.588Z,231.30
2022-10-05T09:55:08.340Z,229.43
2022-10-05T09:57:53.362Z,214.95
2022-10-05T10:00:26.514Z,229.45
2022-10-05T10:03:29.682Z,251.43
2022-10-05T10:06:10.439Z,234.50
2022-10-05T10:08:47.062Z,235.63
2022-10-05T10:11:25.096Z,240.70
2022-10-05T10:14:05.570Z,238.07
2022-10-05T10:16:44.810Z,241.07
2022-10-05T10:19:33.655Z,245.02
2022-10-05T10:22:53.524Z,238.68
2022-10-05T10:25:34.592Z,245.55
2022-10-05T10:28:23.484Z,243.98
2022-10-05T10:31:07.508Z,249.45
2022-10-05T10:34:07.273Z,250.07
2022-10-05T10:36:51.949Z,245.32
2022-10-05T10:39:25.898Z,246.10
2022-10-05T10:42:08.108Z,229.35
2022-10-05T10:44:58.942Z,244.82
2022-10-05T10:47:49.494Z,230.32
2022-10-05T10:50:46.051Z,233.68
2022-10-05T10:53:29.068Z,231.35
2022-10-05T10:56:10.175Z,234.30
2022-10-05T10:59:03.171Z,236.40
2022-10-05T11:01:34.460Z,221.82
2022-10-05T11:04:29.679Z,217.70
2022-10-05T11:07:18.553Z,217.80
2022-10-05T11:10:03.152Z,218.48
2022-10-05T11:12:50.938Z,231.07
2022-10-05T11:16:01.989Z,237.38
2022-10-05T11:18:36.398Z,236.88
2022-10-05T11:21:21.975Z,240.55
2022-10-05T11:24:11.221Z,248.10
2022-10-05T11:26:52.318Z,248.23
2022-10-05T11:29:44.990Z,255.48
2022-10-05T11:32:27.531Z,248.27
2022-10-05T11:35:24.694Z,247.68
2022-10-05T11:38:08.230Z,245.85
2022-10-05T11:41:07.639Z,258.67
2022-10-05T11:43:59.608Z,263.38
2022-10-05T11:46:35.705Z,265.63
2022-10-05T11:49:30.268Z,253.95
2022-10-05T11:52:07.825Z,266.83
2022-10-05T11:57:39.677Z,266.60
2022-10-05T12:00:15.469Z,270.60
2022-10-05T12:03:18.914Z,268.58
2022-10-05T12:06:08.515Z,277.15
2022-10-05T12:08:44.391Z,276.75
2022-10-05T12:11:33.155Z,280.48
2022-10-05T12:14:05.752Z,286.17
2022-10-05T12:16:37.239Z,290.80
2022-10-05T12:19:13.820Z,280.23
2022-10-05T12:21:48.743Z,294.92
2022-10-05T12:24:26.852Z,286.45
2022-10-05T12:27:00.229Z,291.83
2022-10-05T12:29:30.654Z,293.67
2022-10-05T12:32:00.560Z,292.60
2022-10-05T12:34:37.851Z,297.80
2022-10-05T12:37:11.287Z,302.15
2022-10-05T12:39:46.731Z,299.10
2022-10-05T12:42:27.253Z,305.83
2022-10-05T12:45:18.683Z,305.42
2022-10-05T12:47:59.567Z,302.67
2022-10-05T12:54:33.303Z,314.52
2022-10-05T12:57:07.147Z,316.27
2022-10-05T12:59:42.040Z,311.98
2022-10-05T13:02:22.298Z,307.48
2022-10-05T13:04:56.995Z,301.88
2022-10-05T13:07:48.028Z,304.90
2022-10-05T13:10:29.244Z,310.15
2022-10-05T13:13:11.126Z,303.52
2022-10-05T13:15:47.161Z,310.88
2022-10-05T13:18:23.888Z,311.83
2022-10-05T13:21:02.806Z,302.92
2022-10-05T13:23:39.599Z,323.10
2022-10-05T13:26:12.628Z,301.63
2022-10-05T13:28:46.425Z,310.45
2022-10-05T13:31:19.702Z,315.38
2022-10-05T13:34:07.200Z,309.00
2022-10-05T13:36:43.652Z,317.05
2022-10-05T13:39:27.809Z,308.35
2022-10-05T13:42:03.757Z,312.60
2022-10-05T13:44:39.711Z,305.65
2022-10-05T13:47:14.096Z,312.10
2022-10-05T13:49:49.938Z,318.40
2022-10-05T13:52:30.296Z,319.73
2022-10-05T13:55:03.121Z,304.17
2022-10-05T13:57:46.749Z,310.20
2022-10-05T14:00:22.749Z,306.35
2022-10-05T14:02:57.260Z,317.08
2022-10-05T14:05:26.958Z,307.50
2022-10-05T14:07:57.286Z,298.40
2022-10-05T14:10:35.239Z,307.52
2022-10-05T14:13:19.642Z,314.40
2022-10-05T14:16:04.639Z,320.73
2022-10-05T14:18:34.983Z,307.48
2022-10-05T14:21:07.061Z,315.88
2022-10-05T14:23:35.776Z,310.05
2022-10-05T14:26:04.657Z,313.30
2022-10-05T14:28:39.203Z,313.67
2022-10-05T14:31:15.583Z,321.58
2022-10-05T14:33:43.926Z,304.98
2022-10-05T14:36:17.392Z,313.92
2022-10-05T14:38:57.795Z,304.55
2022-10-05T14:41:27.706Z,315.88
2022-10-05T14:44:02.839Z,313.98
2022-10-05T14:46:33.283Z,313.30
2022-10-05T14:49:22.448Z,315.02
2022-10-05T14:51:51.407Z,310.85
2022-10-05T14:54:28.818Z,316.55
2022-10-05T14:57:07.300Z,311.17
2022-10-05T15:00:05.909Z,309.95
2022-10-05T15:02:58.293Z,313.05
2022-10-05T15:05:31.582Z,311.13
2022-10-05T15:08:09.228Z,315.60
2022-10-05T15:10:43.021Z,308.55
2022-10-05T15:13:16.716Z,311.55
2022-10-05T15:15:54.050Z,311.70
2022-10-05T15:18:34.946Z,293.70
2022-10-05T15:21:24.943Z,310.92
2022-10-05T15:23:57.633Z,306.65
2022-10-05T15:26:37.258Z,299.45
2022-10-05T15:29:16.192Z,293.63
2022-10-05T15:31:56.343Z,296.75
2022-10-05T15:34:31.136Z,293.83
2022-10-05T15:37:08.120Z,293.80
2022-10-05T15:39:43.285Z,299.63
2022-10-05T15:42:14.723Z,298.45
2022-10-05T15:44:55.840Z,295.92
2022-10-05T15:47:35.112Z,302.70
2022-10-05T15:50:14.128Z,289.48
2022-10-05T15:52:49.222Z,294.67
2022-10-05T15:55:35.236Z,296.90
2022-10-05T15:58:25.396Z,298.42
2022-10-05T16:01:02.158Z,289.13
2022-10-05T16:03:43.965Z,294.38
2022-10-05T16:06:42.062Z,285.55
2022-10-05T16:09:29.294Z,286.02
2022-10-05T16:12:19.277Z,282.40
2022-10-05T16:14:56.845Z,287.88
2022-10-05T16:17:51.132Z,286.45
2022-10-05T16:20:30.329Z,291.23
2022-10-05T16:23:07.192Z,281.10
2022-10-05T16:25:54.489Z,291.90
2022-10-05T16:28:33.652Z,288.90
2022-10-05T16:31:09.546Z,280.70
2022-10-05T16:33:54.624Z,280.80
2022-10-05T16:36:37.576Z,281.98
2022-10-05T16:39:15.010Z,279.40
2022-10-05T16:41:56.250Z,295.85
2022-10-05T16:44:38.725Z,296.70
2022-10-05T16:47:27.756Z,286.05
2022-10-05T16:50:04.368Z,281.73
2022-10-05T16:52:38.591Z,284.23
2022-10-05T16:55:14.065Z,282.35
2022-10-05T16:57:47.130Z,271.58
2022-10-05T17:00:22.434Z,276.23
2022-10-05T17:03:11.727Z,282.08
2022-10-05T17:05:58.637Z,272.85
2022-10-05T17:08:46.019Z,284.65
2022-10-05T17:11:26.942Z,268.70
2022-10-05T17:14:10.265Z,284.63
2022-10-05T17:16:49.110Z,264.38
2022-10-05T17:19:38.780Z,266.40
2022-10-05T17:22:14.305Z,262.42
2022-10-05T17:24:55.047Z,268.73
2022-10-05T17:27:33.539Z,262.17
2022-10-05T17:30:35.209Z,259.63
2022-10-05T17:33:19.613Z,255.77
2022-10-05T17:36:13.517Z,250.32
2022-10-05T17:38:49.908Z,254.10
2022-10-05T17:41:21.955Z,259.83
2022-10-05T17:44:24.419Z,264.80
2022-10-05T17:46:54.909Z,251.25
2022-10-05T17:50:09.538Z,255.77
2022-10-05T17:52:58.761Z,245.68
2022-10-05T17:56:03.710Z,252.40
2022-10-05T17:59:04.249Z,247.80
2022-10-05T18:01:34.936Z,249.95
2022-10-05T18:04:39.658Z,253.95
2022-10-05T18:07:22.351Z,241.60
2022-10-05T18:09:59.198Z,246.52
2022-10-05T18:12:47.034Z,250.93
2022-10-05T18:15:46.424Z,250.00
2022-10-05T18:18:57.393Z,248.05
2022-10-05T18:21:29.931Z,247.23
2022-10-05T18:24:46.239Z,245.20
2022-10-05T18:28:00.889Z,251.65
2022-10-05T18:30:40.660Z,243.05
2022-10-05T18:33:38.237Z,248.82
2022-10-05T18:36:21.201Z,249.18
2022-10-05T18:38:56.948Z,254.25
2022-10-05T18:41:34.613Z,239.73
2022-10-05T18:44:20.361Z,233.50
2022-10-05T18:46:55.406Z,246.77
2022-10-05T18:49:38.936Z,235.52
2022-10-05T18:52:13.641Z,240.68
2022-10-05T18:54:54.922Z,245.20
2022-10-05T18:57:46.870Z,240.82
2022-10-05T19:00:18.538Z,237.50
2022-10-05T19:02:57.250Z,241.07
2022-10-05T19:05:48.067Z,239.05
2022-10-05T19:08:27.283Z,235.25
2022-10-05T19:10:59.170Z,239.88
2022-10-05T19:13:41.559Z,244.52
2022-10-05T19:16:27.766Z,242.10
2022-10-05T19:19:30.763Z,234.13
2022-10-05T19:22:07.613Z,236.35
2022-10-05T19:24:48.471Z,239.55
2022-10-05T19:27:26.172Z,241.27
2022-10-05T19:30:33.842Z,239.02
2022-10-05T19:33:42.919Z,242.90
2022-10-05T19:36:23.495Z,240.68
2022-10-05T19:39:03.453Z,233.93
2022-10-05T19:41:45.233Z,234.55
2022-10-05T19:44:20.885Z,227.13
2022-10-05T19:47:00.009Z,225.95
2022-10-05T19:49:48.896Z,246.05
2022-10-05T19:52:28.441Z,231.25
2022-10-05T19:55:13.996Z,230.93
2022-10-05T19:57:49.904Z,233.73
2022-10-05T20:00:24.728Z,235.32
2022-10-05T20:02:53.859Z,235.15
2022-10-05T20:05:23.134Z,230.60
2022-10-05T20:07:52.659Z,227.95
2022-10-05T20:10:29.223Z,225.98
2022-10-05T20:12:59.994Z,232.02
2022-10-05T20:15:47.654Z,233.82
2022-10-05T20:18:56.325Z,228.98
2022-10-05T20:21:42.333Z,226.57
2022-10-05T20:24:13.676Z,229.73
2022-10-05T20:27:00.841Z,229.73
2022-10-05T20:29:29.222Z,227.52
2022-10-05T20:31:57.970Z,232.25
2022-10-05T20:34:25.954Z,226.55
2022-10-05T20:36:53.734Z,223.25
2022-10-05T20:39:23.287Z,228.25
2022-10-05T20:41:51.037Z,233.60
2022-10-05T20:44:18.800Z,237.65
2022-10-05T20:46:47.478Z,250.00
2022-10-05T20:49:15.389Z,226.70
2022-10-05T20:51:43.372Z,230.27
2022-10-05T20:54:11.218Z,233.98
2022-10-05T20:56:42.608Z,227.02
2022-10-05T20:59:10.821Z,226.75
2022-10-05T21:01:38.629Z,228.00
2022-10-05T21:04:06.986Z,234.15
2022-10-05T21:06:35.146Z,231.55
2022-10-05T21:09:03.325Z,235.48
2022-10-05T21:11:31.401Z,228.95
2022-10-05T21:14:04.896Z,235.02
2022-10-05T21:16:34.177Z,230.48
2022-10-05T21:19:02.042Z,232.75
2022-10-05T21:21:29.886Z,235.43
2022-10-05T21:24:00.778Z,243.88
2022-10-05T21:26:29.879Z,235.40
2022-10-05T21:28:58.373Z,233.88
2022-10-05T21:31:28.802Z,234.60
2022-10-05T21:33:57.514Z,236.02
2022-10-05T21:36:25.701Z,233.10
2022-10-05T21:38:55.288Z,236.57
2022-10-05T21:41:24.128Z,232.80
2022-10-05T21:43:51.986Z,236.02
2022-10-05T21:46:23.224Z,230.40
2022-10-05T21:48:52.460Z,234.30
2022-10-05T21:51:21.037Z,233.40
2022-10-05T21:53:52.962Z,225.45
2022-10-05T21:56:24.094Z,228.93
2022-10-05T21:58:53.109Z,236.05
2022-10-05T22:01:22.903Z,226.68
2022-10-05T22:03:52.519Z,234.93
2022-10-05T22:06:20.366Z,230.52
2022-10-05T22:08:48.247Z,227.23
2022-10-05T22:11:18.771Z,232.85
2022-10-05T22:13:48.822Z,231.80
2022-10-05T22:16:18.470Z,230.65
2022-10-05T22:18:46.566Z,221.93
2022-10-05T22:21:16.845Z,227.93
2022-10-05T22:23:46.915Z,237.35
2022-10-05T22:26:17.679Z,229.95
2022-10-05T22:28:46.763Z,234.48
2022-10-05T22:31:15.473Z,230.77
2022-10-05T22:33:43.712Z,232.02
2022-10-05T22:36:11.934Z,233.95
2022-10-05T22:38:41.092Z,225.73
2022-10-05T22:41:12.248Z,231.73
2022-10-05T22:43:40.692Z,226.77
2022-10-05T22:46:10.195Z,222.60
2022-10-05T22:48:38.222Z,224.57
2022-10-05T22:51:06.526Z,222.32
2022-10-05T22:53:34.744Z,231.15
2022-10-05T22:56:08.948Z,230.40
2022-10-05T22:58:37.984Z,232.35
2022-10-05T23:01:07.884Z,223.88
2022-10-05T23:03:36.225Z,225.48
2022-10-05T23:06:06.620Z,227.38
2022-10-05T23:08:35.647Z,226.73
2022-10-05T23:11:04.030Z,226.70
2022-10-05T23:13:33.758Z,221.50
2022-10-05T23:16:08.474Z,227.43
2022-10-05T23:18:36.557Z,227.07
2022-10-05T23:21:05.738Z,229.85
2022-10-05T23:23:33.808Z,229.10
2022-10-05T23:26:02.883Z,227.07
2022-10-05T23:28:31.852Z,228.52
2022-10-05T23:31:02.345Z,230.50
2022-10-05T23:33:31.068Z,228.25
2022-10-05T23:36:00.524Z,227.23
2022-10-05T23:38:29.567Z,239.80
2022-10-05T23:40:59.889Z,229.77
2022-10-05T23:43:28.459Z,230.95
2022-10-05T23:45:57.367Z,226.63
2022-10-05T23:48:27.476Z,231.00
2022-10-05T23:50:56.532Z,231.73
2022-10-05T23:53:24.782Z,227.43
2022-10-05T23:55:53.389Z,227.77
2022-10-05T23:58:21.757Z,227.40
